Time;durP1;ratioP1;P1;durP2;ratioP2;P2;SDS_P1;SDS_P2;PMS_P1;PMS_P2;Temp;Humidity;BMP_temperature;BMP_pressure;BME280_temperature;BME280_humidity;BME280_pressure;Samples;Min_cycle;Max_cycle;Signal;HPM_P1;HPM_P2
2022/04/16 00:00:07;;;;;;;20.13;15.68;;;11.20;99.90;;;;;;5054144;28;20048;-78
2022/04/16 00:02:33;;;;;;;16.88;14.35;;;11.10;99.90;;;;;;5053805;28;20477;-78
2022/04/16 00:04:58;;;;;;;19.48;16.23;;;11.10;99.90;;;;;;5053997;28;20029;-78
2022/04/16 00:07:24;;;;;;;20.45;15.05;;;11.20;99.90;;;;;;5053987;28;20040;-78
2022/04/16 00:09:50;;;;;;;19.88;15.23;;;11.10;99.90;;;;;;5054112;28;20112;-77
2022/04/16 00:12:16;;;;;;;22.83;16.30;;;10.90;99.90;;;;;;5054040;28;20036;-78
2022/04/16 00:14:42;;;;;;;18.85;15.60;;;11.00;99.90;;;;;;5053884;28;20044;-78
2022/04/16 00:17:08;;;;;;;19.27;15.73;;;11.00;99.90;;;;;;5053558;28;20032;-77
2022/04/16 00:19:34;;;;;;;21.15;15.80;;;11.10;99.90;;;;;;5053846;28;20128;-77
2022/04/16 00:22:00;;;;;;;20.55;17.13;;;11.00;99.90;;;;;;5036134;28;20505;-77
2022/04/16 00:24:29;;;;;;;21.33;15.68;;;11.00;99.90;;;;;;5053778;28;20025;-79
2022/04/16 00:26:55;;;;;;;21.13;16.70;;;10.90;99.90;;;;;;5053610;28;20033;-78
2022/04/16 00:29:21;;;;;;;20.02;17.13;;;10.80;99.90;;;;;;5053641;28;20549;-78
2022/04/16 00:31:47;;;;;;;23.77;16.77;;;10.80;99.90;;;;;;5053215;28;20099;-78
2022/04/16 00:34:14;;;;;;;21.50;16.10;;;10.60;99.90;;;;;;5053745;28;20041;-78
2022/04/16 00:36:42;;;;;;;22.38;16.27;;;10.60;99.90;;;;;;5053743;28;20549;-77
2022/04/16 00:39:08;;;;;;;19.98;16.33;;;10.60;99.90;;;;;;5053984;28;20044;-78
2022/04/16 00:41:33;;;;;;;22.55;16.55;;;10.50;99.90;;;;;;5053261;28;20033;-76
2022/04/16 00:43:59;;;;;;;20.52;17.13;;;10.60;99.90;;;;;;5053061;28;20029;-78
2022/04/16 00:46:25;;;;;;;20.77;16.83;;;10.70;99.90;;;;;;5052641;28;20367;-76
2022/04/16 00:48:50;;;;;;;22.30;16.50;;;10.80;99.90;;;;;;5035369;28;20124;-74
2022/04/16 00:51:16;;;;;;;20.58;17.23;;;10.90;99.90;;;;;;5053339;28;20021;-76
2022/04/16 00:53:43;;;;;;;21.40;16.83;;;11.00;99.90;;;;;;5053247;28;20082;-74
2022/04/16 00:56:10;;;;;;;22.40;17.73;;;10.80;99.90;;;;;;5053004;28;20072;-76
2022/04/16 00:58:41;;;;;;;23.80;17.20;;;11.00;99.90;;;;;;5052987;28;20388;-77
2022/04/16 01:01:07;;;;;;;28.63;18.98;;;11.20;99.90;;;;;;5052840;28;20025;-74
2022/04/16 01:03:33;;;;;;;37.30;19.00;;;11.30;99.90;;;;;;5042790;28;20094;-72
2022/04/16 01:05:59;;;;;;;23.77;17.27;;;11.30;99.90;;;;;;5032924;28;20033;-78
2022/04/16 01:08:25;;;;;;;25.60;17.60;;;11.00;99.90;;;;;;5032840;28;20394;-78
2022/04/16 01:10:51;;;;;;;21.88;17.65;;;11.00;99.90;;;;;;5031811;28;20033;-78
2022/04/16 01:13:18;;;;;;;26.23;18.85;;;11.10;99.90;;;;;;5033033;28;20467;-78
2022/04/16 01:15:47;;;;;;;24.10;19.23;;;11.10;99.90;;;;;;5032820;28;20017;-78
2022/04/16 01:18:13;;;;;;;22.75;16.67;;;11.10;99.90;;;;;;5031609;28;20120;-78
2022/04/16 01:20:41;;;;;;;22.67;17.83;;;11.10;99.90;;;;;;5032991;28;20100;-79
2022/04/16 01:23:08;;;;;;;22.73;17.08;;;11.10;99.90;;;;;;5032960;28;20036;-78
2022/04/16 01:25:36;;;;;;;28.27;17.20;;;11.00;99.90;;;;;;5032885;28;20390;-78
2022/04/16 01:28:02;;;;;;;24.40;17.00;;;11.00;99.90;;;;;;5032846;28;20082;-78
2022/04/16 01:30:28;;;;;;;21.83;17.10;;;10.90;99.90;;;;;;5032472;28;20017;-78
2022/04/16 01:32:54;;;;;;;24.60;17.42;;;10.90;99.90;;;;;;5032703;28;20033;-77
2022/04/16 01:35:20;;;;;;;23.90;18.02;;;10.90;99.90;;;;;;5033237;28;20025;-77
2022/04/16 01:37:46;;;;;;;24.80;17.25;;;10.80;99.90;;;;;;5032643;28;20040;-78
2022/04/16 01:40:14;;;;;;;23.75;17.45;;;10.80;99.90;;;;;;5031610;28;20044;-78
2022/04/16 01:42:41;;;;;;;23.25;17.45;;;10.80;99.90;;;;;;5032680;28;20033;-78
2022/04/16 01:45:11;;;;;;;25.92;17.55;;;10.80;99.90;;;;;;5032447;28;20029;-76
2022/04/16 01:47:38;;;;;;;24.60;18.60;;;10.60;99.90;;;;;;5040051;28;20543;-78
2022/04/16 01:50:07;;;;;;;23.45;17.65;;;11.00;99.90;;;;;;5052718;28;20033;-77
2022/04/16 01:52:35;;;;;;;28.60;17.73;;;10.90;99.90;;;;;;5052402;28;20021;-79
2022/04/16 01:55:00;;;;;;;22.73;16.98;;;10.60;99.90;;;;;;5052674;28;20099;-78
2022/04/16 01:57:26;;;;;;;24.73;17.13;;;10.80;99.90;;;;;;5055944;28;20579;-79
2022/04/16 01:59:52;;;;;;;22.98;16.35;;;10.80;99.90;;;;;;5038334;28;20441;-78
2022/04/16 02:02:19;;;;;;;25.23;17.05;;;10.70;99.90;;;;;;5038411;28;20489;-78
2022/04/16 02:04:46;;;;;;;23.75;17.67;;;10.50;99.90;;;;;;5056323;28;20017;-79
2022/04/16 02:07:11;;;;;;;24.65;17.10;;;10.60;99.90;;;;;;5056343;28;20486;-80
2022/04/16 02:09:37;;;;;;;26.80;18.73;;;10.30;99.90;;;;;;5038482;28;20075;-76
2022/04/16 02:12:03;;;;;;;24.42;17.88;;;10.50;99.90;;;;;;5056544;28;20105;-77
2022/04/16 02:14:29;;;;;;;28.50;17.40;;;10.50;99.90;;;;;;5055967;28;20059;-77
2022/04/16 02:16:55;;;;;;;20.88;16.42;;;10.60;99.90;;;;;;5038358;28;20076;-78
2022/04/16 02:19:21;;;;;;;24.42;18.33;;;10.70;99.90;;;;;;5056051;28;20037;-76
2022/04/16 02:21:47;;;;;;;26.08;17.65;;;10.80;99.90;;;;;;5056021;28;20043;-78
2022/04/16 02:24:13;;;;;;;25.90;17.67;;;10.60;99.90;;;;;;5056316;28;20025;-78
2022/04/16 02:26:42;;;;;;;25.23;18.63;;;10.30;99.90;;;;;;5056153;28;20041;-78
2022/04/16 02:29:08;;;;;;;23.80;17.63;;;10.20;99.90;;;;;;5055515;28;20068;-77
2022/04/16 02:31:37;;;;;;;28.27;16.63;;;9.90;99.90;;;;;;5055859;28;20078;-77
2022/04/16 02:34:07;;;;;;;23.02;17.13;;;10.00;99.90;;;;;;5055941;28;20047;-77
2022/04/16 02:36:33;;;;;;;23.73;17.63;;;10.00;99.90;;;;;;5038182;28;20496;-77
2022/04/16 02:39:00;;;;;;;21.92;16.70;;;10.20;99.90;;;;;;5056028;28;20029;-78
2022/04/16 02:41:26;;;;;;;23.48;16.52;;;10.10;99.90;;;;;;5038184;28;20451;-78
2022/04/16 02:43:54;;;;;;;27.15;18.77;;;10.00;99.90;;;;;;5037333;28;20037;-79
2022/04/16 02:49:06;;;;;;;25.30;16.98;;;10.00;99.90;;;;;;5055229;28;20056;-79
2022/04/16 02:51:32;;;;;;;24.50;17.52;;;9.90;99.90;;;;;;5055809;28;20049;-78
2022/04/16 02:53:58;;;;;;;27.13;17.85;;;9.70;99.90;;;;;;5037540;28;20421;-78
2022/04/16 02:56:24;;;;;;;27.35;17.88;;;9.80;99.90;;;;;;5037490;28;20045;-79
2022/04/16 02:58:49;;;;;;;24.88;17.85;;;9.80;99.90;;;;;;5055055;28;20028;-79
2022/04/16 03:01:15;;;;;;;26.63;19.00;;;9.70;99.90;;;;;;5055503;28;20044;-79
2022/04/16 03:03:41;;;;;;;24.60;19.15;;;9.90;99.90;;;;;;5055038;28;20029;-79
2022/04/16 03:06:08;;;;;;;28.52;17.42;;;10.10;99.90;;;;;;5055097;28;20062;-78
2022/04/16 03:08:34;;;;;;;27.42;18.25;;;9.90;99.90;;;;;;5054149;28;20067;-74
2022/04/16 03:11:00;;;;;;;24.17;17.95;;;9.80;99.90;;;;;;5054870;28;20463;-79
2022/04/16 03:13:26;;;;;;;24.63;17.98;;;9.60;99.90;;;;;;5055084;28;20064;-76
2022/04/16 03:18:36;;;;;;;33.90;18.00;;;9.40;99.90;;;;;;5055145;28;20435;-79
2022/04/16 03:21:03;;;;;;;28.35;18.95;;;9.40;99.90;;;;;;5055072;28;20025;-77
2022/04/16 03:23:29;;;;;;;30.10;19.02;;;9.40;99.90;;;;;;5055061;28;20032;-77
2022/04/16 03:25:58;;;;;;;25.42;18.58;;;9.50;99.90;;;;;;5054416;28;20033;-78
2022/04/16 03:28:24;;;;;;;28.00;19.30;;;9.50;99.90;;;;;;5054817;28;20045;-79
2022/04/16 03:30:50;;;;;;;26.08;19.52;;;9.40;99.90;;;;;;5054842;28;20036;-78
2022/04/16 03:33:16;;;;;;;30.45;19.63;;;9.50;99.90;;;;;;5054904;28;20048;-80
2022/04/16 03:35:42;;;;;;;29.98;19.95;;;9.50;99.90;;;;;;5054427;28;20462;-77
2022/04/16 03:38:07;;;;;;;34.08;19.77;;;9.40;99.90;;;;;;5054850;28;20033;-78
2022/04/16 03:40:33;;;;;;;29.25;19.80;;;9.40;99.90;;;;;;5054293;28;20486;-76
2022/04/16 03:43:00;;;;;;;28.85;19.77;;;9.40;99.90;;;;;;5036805;28;20033;-76
2022/04/16 03:45:33;;;;;;;33.80;20.48;;;9.30;99.90;;;;;;5054554;28;20044;-75
2022/04/16 03:48:01;;;;;;;32.83;22.02;;;9.10;99.90;;;;;;5054211;28;20144;-75
2022/04/16 03:50:29;;;;;;;33.15;21.70;;;9.10;99.90;;;;;;5054530;28;20029;-73
2022/04/16 03:52:58;;;;;;;30.45;21.27;;;9.20;99.90;;;;;;5054442;28;20051;-78
2022/04/16 04:00:57;;;;;;;26.83;21.30;;;9.10;99.90;;;;;;5054264;28;20044;-77
2022/04/16 04:03:23;;;;;;;34.17;22.70;;;9.10;99.90;;;;;;5054152;28;20055;-78
2022/04/16 04:05:49;;;;;;;30.98;22.48;;;9.20;99.90;;;;;;5053907;28;20171;-76
2022/04/16 04:08:16;;;;;;;30.00;21.02;;;9.00;99.90;;;;;;5054063;28;20032;-75
2022/04/16 04:10:42;;;;;;;30.02;22.88;;;9.00;99.90;;;;;;5053617;28;20033;-76
2022/04/16 04:13:08;;;;;;;28.20;21.75;;;8.90;99.90;;;;;;5036475;28;20025;-78
2022/04/16 04:15:34;;;;;;;31.05;22.75;;;9.10;99.90;;;;;;5053925;28;20036;-77
2022/04/16 04:18:00;;;;;;;32.55;22.10;;;9.20;99.90;;;;;;5053868;28;20095;-76
2022/04/16 04:20:27;;;;;;;32.58;23.50;;;9.20;99.90;;;;;;5054342;28;20051;-78
2022/04/16 04:22:53;;;;;;;32.28;23.48;;;9.40;99.90;;;;;;5054244;28;20662;-77
2022/04/16 04:25:19;;;;;;;33.45;23.17;;;9.50;99.90;;;;;;5053568;28;20057;-75
2022/04/16 04:27:45;;;;;;;35.13;23.45;;;9.20;99.90;;;;;;5053638;28;20037;-76
2022/04/16 04:30:12;;;;;;;30.88;23.48;;;9.20;99.90;;;;;;5035787;28;20472;-78
2022/04/16 04:32:38;;;;;;;32.05;22.58;;;9.20;99.90;;;;;;5053628;28;20713;-73
2022/04/16 04:35:08;;;;;;;34.40;23.48;;;9.20;99.90;;;;;;5035779;28;20523;-76
2022/04/16 04:37:34;;;;;;;38.05;25.13;;;9.10;99.90;;;;;;5053559;28;20033;-78
2022/04/16 04:40:00;;;;;;;36.85;24.60;;;9.20;99.90;;;;;;5053186;28;20025;-77
2022/04/16 04:42:30;;;;;;;33.40;24.77;;;9.10;99.90;;;;;;5035482;28;20037;-75
2022/04/16 04:44:57;;;;;;;35.95;23.88;;;9.20;99.90;;;;;;5053434;28;20033;-77
2022/04/16 04:47:23;;;;;;;35.88;25.33;;;9.10;99.90;;;;;;5035289;28;20135;-78
2022/04/16 04:49:49;;;;;;;36.08;24.80;;;9.30;99.90;;;;;;5053228;28;20155;-77
2022/04/16 04:52:29;;;;;;;40.05;24.73;;;9.20;99.90;;;;;;5053274;28;20036;-75
2022/04/16 04:54:56;;;;;;;32.25;24.85;;;9.10;99.90;;;;;;5053267;28;20037;-77
2022/04/16 04:57:22;;;;;;;36.58;25.10;;;9.10;99.90;;;;;;5053230;28;20462;-76
2022/04/16 04:59:47;;;;;;;33.63;23.88;;;9.00;99.90;;;;;;5053122;28;20028;-76
2022/04/16 05:02:13;;;;;;;33.97;24.92;;;9.10;99.90;;;;;;5035369;28;20040;-78
2022/04/16 05:04:39;;;;;;;33.58;23.95;;;9.10;99.90;;;;;;5052917;28;20024;-76
2022/04/16 05:07:08;;;;;;;35.33;24.88;;;9.10;99.90;;;;;;5052489;28;20032;-77
2022/04/16 05:09:34;;;;;;;36.72;24.40;;;9.30;99.90;;;;;;5053137;28;20020;-77
2022/04/16 05:12:00;;;;;;;31.92;25.02;;;9.20;99.90;;;;;;5052942;28;20029;-78
2022/04/16 05:14:25;;;;;;;38.15;23.95;;;9.10;99.90;;;;;;5053110;28;20525;-77
2022/04/16 05:16:51;;;;;;;33.95;24.23;;;9.20;99.90;;;;;;5052870;28;20485;-74
2022/04/16 05:19:17;;;;;;;40.67;24.90;;;9.20;99.90;;;;;;5052756;28;20377;-76
2022/04/16 05:21:43;;;;;;;35.97;23.60;;;9.20;99.90;;;;;;5052671;28;20083;-79
2022/04/16 05:24:10;;;;;;;38.33;25.10;;;9.50;99.90;;;;;;5035257;28;20025;-76
2022/04/16 05:26:40;;;;;;;32.53;23.55;;;9.40;99.90;;;;;;5034969;28;20111;-77
2022/04/16 05:29:07;;;;;;;33.78;24.27;;;9.40;99.90;;;;;;5052982;28;20045;-77
2022/04/16 05:31:33;;;;;;;34.60;23.85;;;9.40;99.90;;;;;;5052435;28;20070;-78
2022/04/16 05:36:44;;;;;;;37.92;24.50;;;9.60;99.90;;;;;;5053015;28;20358;-79
2022/04/16 05:39:09;;;;;;;33.72;24.65;;;9.80;99.90;;;;;;5052507;28;20037;-79
2022/04/16 05:41:35;;;;;;;35.70;24.98;;;9.90;99.90;;;;;;5052719;28;20029;-78
2022/04/16 05:44:02;;;;;;;38.25;25.83;;;9.80;99.90;;;;;;5052619;28;20025;-79
2022/04/16 05:46:28;;;;;;;35.50;25.25;;;9.60;99.90;;;;;;5052652;28;20120;-79
2022/04/16 05:48:54;;;;;;;40.88;24.70;;;9.80;99.90;;;;;;5052181;28;20124;-79
2022/04/16 05:51:21;;;;;;;31.33;23.25;;;9.70;99.90;;;;;;5052399;28;20040;-79
2022/04/16 05:53:48;;;;;;;38.10;23.60;;;9.70;99.90;;;;;;5052431;28;20032;-79
2022/04/16 05:56:15;;;;;;;36.05;24.48;;;9.90;99.90;;;;;;5052675;28;20037;-79
2022/04/16 05:58:42;;;;;;;36.28;24.60;;;10.00;99.90;;;;;;5052279;28;20059;-79
2022/04/16 06:01:09;;;;;;;35.38;24.50;;;10.10;99.90;;;;;;5052552;28;20028;-79
2022/04/16 06:03:41;;;;;;;37.08;25.52;;;10.20;99.90;;;;;;5052225;28;20071;-79
2022/04/16 06:06:08;;;;;;;38.08;25.33;;;10.10;99.90;;;;;;5052072;28;20040;-79
2022/04/16 06:08:34;;;;;;;35.38;24.98;;;10.30;99.90;;;;;;5052257;28;20120;-79
2022/04/16 06:10:59;;;;;;;45.63;26.48;;;10.30;99.90;;;;;;5034553;28;20159;-78
2022/04/16 06:13:25;;;;;;;35.20;25.30;;;10.30;99.90;;;;;;5052400;28;20493;-79
2022/04/16 06:15:51;;;;;;;34.50;25.48;;;10.30;99.90;;;;;;5052381;28;20483;-79
2022/04/16 06:18:17;;;;;;;36.95;25.20;;;10.40;99.90;;;;;;5052168;28;20131;-78
2022/04/16 06:20:43;;;;;;;36.33;26.02;;;10.50;99.90;;;;;;5052331;28;20033;-79
2022/04/16 06:23:08;;;;;;;35.88;26.05;;;10.60;99.90;;;;;;5052221;28;20069;-78
2022/04/16 06:25:35;;;;;;;35.30;25.88;;;10.70;99.90;;;;;;5052257;28;20025;-79
2022/04/16 06:28:01;;;;;;;34.22;24.33;;;10.60;99.90;;;;;;5052308;28;20037;-78
2022/04/16 06:30:27;;;;;;;32.42;24.52;;;10.60;99.90;;;;;;5052374;28;20017;-79
2022/04/16 06:32:53;;;;;;;33.67;25.80;;;10.50;99.90;;;;;;5052233;28;20572;-79
2022/04/16 06:35:19;;;;;;;34.55;24.10;;;10.40;99.90;;;;;;5051913;28;20021;-79
2022/04/16 06:37:44;;;;;;;35.53;24.48;;;10.40;99.90;;;;;;5052057;28;20087;-79
2022/04/16 06:40:11;;;;;;;32.83;23.55;;;10.30;99.90;;;;;;5052037;28;20025;-79
2022/04/16 06:42:37;;;;;;;38.22;24.73;;;10.30;99.90;;;;;;5052575;28;20052;-79
2022/04/16 06:45:06;;;;;;;38.15;24.95;;;10.30;99.90;;;;;;5055521;28;20025;-79
2022/04/16 06:47:32;;;;;;;32.65;24.55;;;10.40;99.90;;;;;;5055595;28;20432;-79
2022/04/16 06:49:58;;;;;;;33.78;24.08;;;10.50;99.90;;;;;;5055180;28;20036;-79
2022/04/16 06:52:24;;;;;;;33.72;24.13;;;10.50;99.90;;;;;;5055728;28;20025;-79
2022/04/16 06:54:50;;;;;;;33.67;24.25;;;10.70;99.90;;;;;;5055499;28;20090;-78
2022/04/16 06:57:16;;;;;;;34.33;24.50;;;11.00;99.90;;;;;;5055415;28;20017;-79
2022/04/16 06:59:42;;;;;;;38.47;24.25;;;11.00;99.90;;;;;;5037467;28;20037;-79
2022/04/16 07:02:09;;;;;;;30.35;23.15;;;10.90;99.90;;;;;;5055331;28;20036;-79
2022/04/16 07:04:35;;;;;;;33.58;23.30;;;11.10;99.90;;;;;;5037007;28;20098;-78
2022/04/16 07:07:01;;;;;;;31.33;22.52;;;11.10;99.90;;;;;;5055185;28;20033;-80
2022/04/16 07:09:27;;;;;;;31.73;22.85;;;11.30;99.90;;;;;;5037343;28;20382;-80
2022/04/16 07:11:53;;;;;;;30.77;22.30;;;11.50;99.90;;;;;;5037371;28;20387;-79
2022/04/16 07:14:19;;;;;;;30.50;22.85;;;11.80;99.90;;;;;;5055153;28;20214;-79
2022/04/16 07:16:45;;;;;;;34.47;24.63;;;11.90;99.90;;;;;;5055330;28;20052;-80
2022/04/16 07:19:11;;;;;;;33.88;23.10;;;12.20;99.90;;;;;;5037078;28;20102;-79
2022/04/16 07:21:36;;;;;;;30.52;21.77;;;12.10;99.90;;;;;;5055036;28;20485;-79
2022/04/16 07:24:02;;;;;;;30.38;22.05;;;12.10;99.90;;;;;;5054837;28;20032;-79
2022/04/16 07:26:28;;;;;;;29.25;20.83;;;12.10;99.90;;;;;;5055010;28;20446;-79
2022/04/16 07:28:54;;;;;;;31.02;20.40;;;12.10;99.90;;;;;;5054928;28;20108;-79
2022/04/16 07:31:19;;;;;;;32.35;20.80;;;12.10;99.90;;;;;;5037230;28;20473;-79
2022/04/16 07:33:45;;;;;;;28.30;21.60;;;12.30;99.90;;;;;;5054614;28;20021;-78
2022/04/16 07:36:11;;;;;;;32.97;20.55;;;12.30;99.90;;;;;;5054642;28;20029;-79
2022/04/16 07:38:37;;;;;;;29.33;20.15;;;12.60;99.90;;;;;;5054716;28;20087;-79
2022/04/16 07:41:03;;;;;;;26.83;18.73;;;12.60;99.90;;;;;;5054558;28;20039;-78
2022/04/16 07:43:29;;;;;;;30.35;19.30;;;12.70;99.90;;;;;;5054731;28;20033;-76
2022/04/16 07:45:55;;;;;;;25.25;18.67;;;12.60;99.90;;;;;;5054365;28;20074;-78
2022/04/16 07:48:21;;;;;;;26.67;18.92;;;12.70;99.90;;;;;;5054119;28;20041;-78
2022/04/16 07:50:47;;;;;;;25.98;18.20;;;12.90;99.90;;;;;;5054517;28;20028;-79
2022/04/16 07:53:13;;;;;;;21.98;17.30;;;13.10;99.90;;;;;;5054060;28;20040;-79
2022/04/16 07:55:39;;;;;;;26.48;16.90;;;13.30;99.90;;;;;;5054037;28;20058;-79
2022/04/16 07:58:05;;;;;;;25.00;17.73;;;13.40;99.90;;;;;;5054286;28;20130;-78
2022/04/16 08:00:30;;;;;;;23.80;17.67;;;13.50;99.90;;;;;;5036229;28;20428;-75
2022/04/16 08:02:56;;;;;;;24.50;16.20;;;13.60;99.90;;;;;;5053887;28;20028;-78
2022/04/16 08:05:22;;;;;;;26.20;16.35;;;13.30;99.90;;;;;;5053924;28;20033;-76
2022/04/16 08:07:49;;;;;;;19.38;15.52;;;13.50;99.90;;;;;;5054123;28;20367;-78
2022/04/16 08:10:15;;;;;;;25.83;16.30;;;13.70;99.90;;;;;;5054073;28;20033;-78
2022/04/16 08:12:41;;;;;;;19.67;15.60;;;13.80;99.90;;;;;;5054209;28;20032;-75
2022/04/16 08:15:07;;;;;;;23.55;15.95;;;13.70;99.90;;;;;;5054192;28;20531;-79
2022/04/16 08:17:33;;;;;;;20.83;14.68;;;13.50;99.90;;;;;;5053607;28;20079;-77
2022/04/16 08:19:59;;;;;;;18.77;14.52;;;13.60;99.90;;;;;;5055908;28;20121;-77
2022/04/16 08:22:28;;;;;;;20.42;16.27;;;13.90;99.90;;;;;;5053860;28;20129;-79
2022/04/16 08:27:39;;;;;;;20.35;15.10;;;14.00;99.90;;;;;;5053572;28;20041;-78
2022/04/16 08:30:07;;;;;;;23.83;15.82;;;14.20;99.90;;;;;;5055029;28;20036;-77
2022/04/16 08:32:41;;;;;;;23.20;15.57;;;14.40;99.90;;;;;;5057694;28;20049;-78
2022/04/16 08:35:12;;;;;;;18.85;14.32;;;14.70;99.90;;;;;;5057126;28;20464;-79
2022/04/16 08:37:38;;;;;;;20.63;14.02;;;14.70;99.90;;;;;;5053694;28;20098;-77
2022/04/16 08:40:06;;;;;;;21.45;14.18;;;14.80;99.90;;;;;;5053510;28;20433;-79
2022/04/16 08:42:33;;;;;;;17.50;12.02;;;15.10;99.90;;;;;;5035431;28;20055;-78
2022/04/16 08:45:00;;;;;;;18.73;12.10;;;15.10;99.90;;;;;;5053278;28;20124;-77
2022/04/16 08:47:26;;;;;;;17.60;12.43;;;15.30;99.90;;;;;;5053124;28;20078;-78
2022/04/16 08:49:51;;;;;;;14.30;11.68;;;15.40;99.90;;;;;;5053382;28;20401;-79
2022/04/16 08:52:17;;;;;;;15.05;10.65;;;15.50;99.90;;;;;;5035392;28;20238;-78
2022/04/16 08:54:43;;;;;;;15.82;11.27;;;15.50;99.90;;;;;;5053628;28;20033;-79
2022/04/16 08:57:10;;;;;;;15.60;11.10;;;15.30;99.90;;;;;;5053544;28;20500;-79
2022/04/16 08:59:35;;;;;;;14.43;10.52;;;15.40;99.90;;;;;;5052833;28;20103;-77
2022/04/16 09:02:01;;;;;;;15.80;10.65;;;15.50;99.90;;;;;;5053077;28;20456;-79
2022/04/16 09:04:31;;;;;;;13.40;10.45;;;15.60;99.30;;;;;;5035192;28;20017;-78
2022/04/16 09:07:03;;;;;;;17.83;11.88;;;15.70;99.90;;;;;;5034992;28;20040;-76
2022/04/16 09:09:29;;;;;;;16.08;10.73;;;15.50;99.40;;;;;;5053178;28;20065;-79
2022/04/16 09:11:55;;;;;;;14.25;10.52;;;15.50;99.90;;;;;;5053003;28;20104;-79
2022/04/16 09:14:42;;;;;;;14.63;9.85;;;15.50;99.90;;;;;;5052678;28;20068;-79
2022/04/16 09:17:09;;;;;;;15.35;10.35;;;15.90;99.90;;;;;;5052885;28;20079;-78
2022/04/16 09:19:35;;;;;;;13.13;9.35;;;16.10;98.80;;;;;;5052852;28;20040;-79
2022/04/16 09:22:00;;;;;;;13.63;9.55;;;16.20;98.70;;;;;;5035025;28;20021;-79
2022/04/16 09:24:26;;;;;;;13.20;8.75;;;16.10;97.60;;;;;;5052705;28;20087;-79
2022/04/16 09:26:53;;;;;;;12.02;8.52;;;16.10;98.10;;;;;;5052689;28;20160;-78
2022/04/16 09:29:19;;;;;;;15.75;9.07;;;15.90;98.20;;;;;;5052407;28;20045;-79
2022/04/16 09:31:46;;;;;;;11.15;8.55;;;16.00;99.00;;;;;;5052983;28;20473;-79
2022/04/16 09:34:20;;;;;;;13.95;8.65;;;16.40;98.60;;;;;;5052581;28;20033;-79
2022/04/16 09:36:47;;;;;;;13.05;9.30;;;16.70;98.20;;;;;;5053499;28;20051;-79
2022/04/16 09:39:13;;;;;;;13.32;9.50;;;16.80;98.40;;;;;;5052299;28;20036;-79
2022/04/16 09:41:41;;;;;;;13.98;7.50;;;17.10;97.80;;;;;;5034861;28;20037;-79
2022/04/16 09:44:25;;;;;;;11.02;7.75;;;16.70;96.40;;;;;;5052334;28;20079;-79
2022/04/16 09:46:52;;;;;;;11.20;8.20;;;16.30;96.50;;;;;;5035083;28;20491;-79
2022/04/16 09:49:19;;;;;;;15.20;8.23;;;16.20;97.40;;;;;;5034884;28;20500;-79
2022/04/16 09:51:46;;;;;;;18.42;9.52;;;16.60;97.50;;;;;;5052557;28;20029;-79
2022/04/16 09:54:13;;;;;;;12.85;8.25;;;17.00;96.70;;;;;;5052734;28;20021;-80
2022/04/16 09:56:40;;;;;;;10.60;8.00;;;17.00;95.70;;;;;;5052639;28;20028;-79
2022/04/16 09:59:08;;;;;;;10.32;7.93;;;17.30;96.40;;;;;;5052029;28;20033;-73
2022/04/16 10:01:38;;;;;;;13.35;8.10;;;17.50;95.30;;;;;;5052445;28;20037;-78
2022/04/16 10:04:04;;;;;;;9.45;5.97;;;17.70;95.40;;;;;;5052059;28;20473;-79
2022/04/16 10:06:30;;;;;;;6.20;4.05;;;18.10;95.20;;;;;;5052422;28;20033;-79
2022/04/16 10:08:58;;;;;;;10.43;4.68;;;17.50;93.40;;;;;;5034324;28;20055;-79
2022/04/16 10:11:42;;;;;;;18.05;4.97;;;17.30;95.00;;;;;;5052312;28;20040;-79
2022/04/16 10:14:30;;;;;;;6.90;4.57;;;17.70;94.70;;;;;;5052100;28;20074;-78
2022/04/16 10:17:24;;;;;;;7.53;4.45;;;17.80;94.60;;;;;;5053210;28;20049;-79
2022/04/16 10:19:50;;;;;;;8.15;5.50;;;18.10;94.10;;;;;;5056041;28;20104;-79
2022/04/16 10:22:26;;;;;;;5.13;4.40;;;18.40;93.80;;;;;;5055852;28;20141;-79
2022/04/16 10:24:59;;;;;;;5.93;4.45;;;18.60;92.00;;;;;;5055814;28;20492;-80
2022/04/16 10:27:30;;;;;;;8.25;4.28;;;18.50;92.50;;;;;;5055727;28;20370;-80
2022/04/16 10:30:07;;;;;;;4.97;4.03;;;18.30;93.40;;;;;;5055846;28;20079;-80
2022/04/16 10:32:41;;;;;;;4.53;3.17;;;18.50;92.40;;;;;;5055889;28;20029;-80
2022/04/16 10:35:13;;;;;;;6.97;3.78;;;18.90;92.20;;;;;;5055646;28;20029;-79
2022/04/16 10:37:41;;;;;;;7.03;4.70;;;19.00;91.80;;;;;;5055733;28;20037;-79
2022/04/16 10:40:23;;;;;;;7.35;4.55;;;18.90;91.30;;;;;;5055580;28;20542;-80
2022/04/16 10:42:57;;;;;;;4.90;4.20;;;19.00;91.90;;;;;;5055366;28;20461;-79
2022/04/16 10:45:23;;;;;;;4.55;3.88;;;19.50;91.40;;;;;;5055455;28;20017;-79
2022/04/16 10:47:51;;;;;;;6.13;3.90;;;19.90;90.70;;;;;;5055149;28;20053;-78
2022/04/16 10:50:18;;;;;;;7.00;4.68;;;19.30;91.60;;;;;;5055401;28;20033;-79
2022/04/16 10:52:54;;;;;;;4.78;4.25;;;19.50;91.20;;;;;;5055675;28;20359;-79
2022/04/16 10:55:30;;;;;;;7.57;4.47;;;19.40;91.60;;;;;;5055024;28;20067;-78
2022/04/16 10:58:06;;;;;;;5.32;4.18;;;20.00;90.90;;;;;;5055131;28;20063;-77
2022/04/16 11:00:45;;;;;;;5.85;4.70;;;20.30;90.50;;;;;;5054990;28;20184;-78
2022/04/16 11:03:18;;;;;;;6.20;4.50;;;20.10;89.90;;;;;;5037459;28;20025;-79
2022/04/16 11:05:45;;;;;;;5.72;4.82;;;20.40;90.30;;;;;;5055135;28;20033;-78
2022/04/16 11:08:13;;;;;;;6.53;4.93;;;20.00;89.60;;;;;;5055135;28;20028;-77
2022/04/16 11:10:41;;;;;;;7.45;5.93;;;20.00;90.00;;;;;;5054607;28;20028;-78
2022/04/16 11:13:07;;;;;;;9.27;5.82;;;20.30;89.90;;;;;;5055168;28;20029;-80
2022/04/16 11:15:33;;;;;;;6.38;5.43;;;20.60;89.40;;;;;;5054963;28;20052;-80
2022/04/16 11:18:01;;;;;;;7.45;5.47;;;20.90;89.00;;;;;;5055110;28;20051;-79
2022/04/16 11:20:28;;;;;;;8.93;5.35;;;21.20;88.10;;;;;;5054848;28;20055;-79
2022/04/16 11:22:54;;;;;;;10.27;5.43;;;20.50;89.10;;;;;;5054941;28;20440;-79
2022/04/16 11:34:14;;;;;;;8.50;5.70;;;20.60;90.00;;;;;;5054531;28;20024;-80
2022/04/16 11:36:28;;;;;;;7.72;5.65;;;20.50;89.30;;;;;;5054851;28;20053;-77
2022/04/16 11:38:53;;;;;;;8.98;5.82;;;21.20;88.50;;;;;;5054382;28;20071;-80
2022/04/16 11:41:19;;;;;;;6.30;5.10;;;21.70;88.90;;;;;;5054480;28;20029;-79
2022/04/16 11:43:47;;;;;;;8.88;5.80;;;21.80;86.00;;;;;;5054543;28;20025;-80
2022/04/16 11:46:14;;;;;;;6.60;5.38;;;21.80;85.30;;;;;;5054362;28;20037;-80
2022/04/16 11:48:45;;;;;;;7.63;5.78;;;21.90;84.60;;;;;;5054259;28;20037;-80
2022/04/16 11:51:12;;;;;;;11.50;5.28;;;21.10;84.20;;;;;;5054238;28;20040;-80
2022/04/16 11:53:51;;;;;;;9.18;6.45;;;21.00;86.50;;;;;;5053996;28;20482;-80
2022/04/16 11:56:21;;;;;;;9.27;6.53;;;21.70;86.90;;;;;;5036293;28;20470;-80
2022/04/16 11:58:53;;;;;;;9.85;6.60;;;21.90;84.50;;;;;;5054177;28;20061;-80
2022/04/16 12:01:20;;;;;;;10.95;6.88;;;21.40;85.40;;;;;;5053925;28;20025;-80
2022/04/16 12:03:46;;;;;;;8.18;6.35;;;20.40;85.40;;;;;;5054177;28;20396;-78
2022/04/16 12:06:13;;;;;;;9.68;6.20;;;20.10;88.00;;;;;;5053961;28;20036;-80
2022/04/16 12:08:42;;;;;;;9.45;6.40;;;21.40;85.80;;;;;;5053415;28;20045;-81
2022/04/16 12:11:10;;;;;;;10.30;7.22;;;22.00;85.80;;;;;;5053799;28;20028;-81
2022/04/16 12:13:37;;;;;;;8.25;7.07;;;21.50;85.00;;;;;;5053888;28;20072;-79
2022/04/16 12:16:10;;;;;;;9.30;6.95;;;21.70;85.40;;;;;;5053819;28;20021;-81
2022/04/16 12:18:38;;;;;;;9.45;6.22;;;22.60;82.70;;;;;;5053936;28;20037;-81
2022/04/16 12:21:08;;;;;;;8.73;6.10;;;22.60;83.30;;;;;;5053904;28;20036;-79
2022/04/16 12:23:37;;;;;;;10.70;6.47;;;22.80;85.00;;;;;;5053458;28;20044;-81
2022/04/16 12:26:05;;;;;;;8.80;6.50;;;23.10;83.90;;;;;;5035785;28;20021;-82
2022/04/16 12:28:36;;;;;;;9.32;6.32;;;23.10;80.70;;;;;;5053559;28;20037;-80
2022/04/16 12:31:03;;;;;;;8.30;6.65;;;22.20;83.80;;;;;;5053920;28;20075;-80
2022/04/16 12:33:29;;;;;;;8.68;6.57;;;23.50;82.90;;;;;;5053601;28;20104;-80
2022/04/16 12:35:56;;;;;;;9.70;7.30;;;24.30;80.70;;;;;;5053603;28;20099;-81
2022/04/16 12:38:25;;;;;;;10.32;7.10;;;24.90;80.30;;;;;;5053365;28;20090;-80
2022/04/16 12:41:11;;;;;;;8.27;6.65;;;25.40;77.40;;;;;;5053378;28;20770;-81
2022/04/16 12:43:37;;;;;;;9.02;6.13;;;25.30;79.10;;;;;;5053111;28;20505;-81
2022/04/16 12:46:03;;;;;;;8.40;6.45;;;26.30;78.10;;;;;;5053467;28;20136;-82
2022/04/16 12:48:29;;;;;;;7.35;6.10;;;26.10;75.00;;;;;;5053100;28;20131;-82
2022/04/16 12:50:55;;;;;;;7.85;6.28;;;25.70;76.50;;;;;;5053291;28;20021;-82
2022/04/16 12:53:20;;;;;;;6.85;5.85;;;25.40;76.80;;;;;;5053260;28;20408;-77
2022/04/16 12:55:46;;;;;;;6.93;5.95;;;24.90;75.70;;;;;;5053349;28;20029;-83
2022/04/16 12:58:12;;;;;;;8.70;6.15;;;25.10;76.90;;;;;;5053247;28;20112;-83